Kashi Airport
ZWSH : now visible

Airfield :











YOU CAN JOIN US ON...

 
LOGIN :

Register | Disclaimer

   EN    FR    IT 

 









Legend :    VFR   Marginal VFR   IFR   Intensive IFR   Very Intensive IFR
Visi :
Ceiling :
>= 8 km
>= 3000ft
5 to 8 km
1000 to 3000 ft
1500m to 5 km
500 to 1000 ft
800 to 1500m
200 to 500 ft
< 800m
< 200 ft
Symbols :   Thunderstorms  Fog  Heavy snow  Heavy precipitations  Wind > 20 kt






- Airport Elevation : 4529 ft
- IATA code : KHG


ZWSH - Kashi

CURRENT METAR :
  • 281500Z AUTO 33003MPS 9999 // ////// M03/M11 Q1023

EXPIRED METARs :
  • 281400Z AUTO VRB02MPS 9999 // ////// M02/M11 Q1023
  • 281300Z 04003MPS 8000 NSC M01/M11 Q1022 NOSIG

TAF TAF ZWSH
Valid from the 28 at 12:00 until the 29 at 12:00 UTC


280930Z 2812/2912 32005MPS 8000 NSC TX02/2909Z TNM08/2900Z
BECMG 2903/2904 12004MPS



MET'MAP, your aeronautical weather chart ! - Copyright ORBIFLY December 2007 - Disclaimer

ORBIFLY MET'MAP TEAM :

Programming & Development : Alexandra Zaïnal
Concept & original design : Baudouin d'Aumeries
Assistance for programming : Marc-Olivier Méhu
Technical & hardware support : Manuel Goepfert

Contact : metmap@orbifly.com




SOURCES & CREDITS :

   NOAA       Earth
Advisory